Terminal Aerodrome Forecast
Issued by NWS

Home | Current Version | Previous Version | Text Only | Print | Product List | Glossary On
Versions: 1 2 3 4 5 6 7 8 9 10 11 12 13 14 15 16 17 18 19 20 21 22 23 24 25 26 27 28 29 30 31
722
FTUS45 KGJT 282340 AAA
TAFEGE
TAF AMD
KEGE 282340Z 2900/2924 30010KT P6SM VCTS SCT080CB BKN100
      TEMPO 2900/2903 VRB10G18KT P6SM -TSRA BKN070CB OVC100
     FM290300 07004KT P6SM VCTS BKN070CB BKN100
     FM290600 VRB03KT P6SM SCT120
     FM292100 06005KT P6SM BKN100
      AMD LTD TO CLD VIS AND WIND 2901/2913=

USA.gov is the U.S. government's official web portal to all federal, state and local government web resources and services.